createdAt,value
2023-09-17T00:01:46.530Z,4.90
2023-09-17T00:04:14.389Z,5.00
2023-09-17T00:06:43.371Z,4.97
2023-09-17T00:09:11.553Z,4.77
2023-09-17T00:11:40.611Z,4.77
2023-09-17T00:14:08.430Z,5.10
2023-09-17T00:16:35.981Z,5.37
2023-09-17T00:19:05.065Z,6.00
2023-09-17T00:21:32.696Z,4.90
2023-09-17T00:24:00.199Z,5.70
2023-09-17T00:26:27.751Z,5.80
2023-09-17T00:28:56.662Z,5.13
2023-09-17T00:31:24.241Z,6.80
2023-09-17T00:33:51.903Z,5.80
2023-09-17T00:36:20.136Z,5.80
2023-09-17T00:38:47.654Z,6.30
2023-09-17T00:41:15.521Z,5.60
2023-09-17T00:43:44.145Z,5.30
2023-09-17T00:46:15.866Z,6.70
2023-09-17T00:48:44.825Z,6.00
2023-09-17T00:51:12.384Z,6.53
2023-09-17T00:53:41.343Z,6.53
2023-09-17T00:56:10.034Z,6.60
2023-09-17T00:58:39.219Z,5.70
2023-09-17T01:01:08.730Z,6.67
2023-09-17T01:03:38.870Z,6.43
2023-09-17T01:06:07.707Z,6.50
2023-09-17T01:08:37.065Z,6.30
2023-09-17T01:11:04.800Z,6.23
2023-09-17T01:13:35.553Z,6.60
2023-09-17T01:16:05.025Z,6.30
2023-09-17T01:18:33.697Z,6.30
2023-09-17T01:21:12.351Z,6.23
2023-09-17T01:23:44.983Z,6.20
2023-09-17T01:26:17.996Z,6.27
2023-09-17T01:28:46.945Z,5.60
2023-09-17T01:31:14.511Z,5.17
2023-09-17T01:33:42.063Z,4.93
2023-09-17T01:36:18.286Z,5.17
2023-09-17T01:38:49.074Z,5.57
2023-09-17T01:41:19.073Z,4.80
2023-09-17T01:43:49.105Z,5.13
2023-09-17T01:46:17.530Z,5.00
2023-09-17T01:48:47.759Z,5.37
2023-09-17T01:51:15.927Z,5.50
2023-09-17T01:53:43.722Z,5.40
2023-09-17T01:56:13.384Z,4.93
2023-09-17T01:58:40.966Z,4.80
2023-09-17T02:01:09.835Z,5.00
2023-09-17T02:03:37.434Z,4.90
2023-09-17T02:06:05.381Z,5.47
2023-09-17T02:08:33.154Z,5.47
2023-09-17T02:11:00.677Z,5.80
2023-09-17T02:13:28.254Z,5.37
2023-09-17T02:15:55.808Z,6.10
2023-09-17T02:18:24.730Z,4.47
2023-09-17T02:20:52.227Z,4.50
2023-09-17T02:23:19.774Z,4.50
2023-09-17T02:25:47.792Z,6.03
2023-09-17T02:28:15.522Z,6.43
2023-09-17T02:30:42.127Z,5.37
2023-09-17T02:33:11.605Z,5.27
2023-09-17T02:35:40.692Z,4.80
2023-09-17T02:38:08.236Z,4.37
2023-09-17T02:40:35.811Z,4.40
2023-09-17T02:43:03.355Z,5.17
2023-09-17T02:45:30.988Z,4.63
2023-09-17T02:47:58.538Z,6.70
2023-09-17T02:50:26.120Z,5.07
2023-09-17T02:52:55.133Z,7.53
2023-09-17T02:55:23.136Z,8.13
2023-09-17T02:57:50.758Z,6.40
2023-09-17T03:00:22.611Z,5.00
2023-09-17T03:02:55.558Z,4.23
2023-09-17T03:05:23.276Z,4.67
2023-09-17T03:07:50.845Z,6.40
2023-09-17T03:10:21.405Z,6.10
2023-09-17T03:12:49.144Z,6.80
2023-09-17T03:15:16.705Z,4.97
2023-09-17T03:17:44.649Z,4.03
2023-09-17T03:20:18.229Z,7.03
2023-09-17T03:22:46.377Z,5.00
2023-09-17T03:25:14.632Z,5.30
2023-09-17T03:27:45.170Z,4.20
2023-09-17T03:30:13.790Z,4.73
2023-09-17T03:32:53.386Z,4.50
2023-09-17T03:35:25.822Z,3.60
2023-09-17T03:37:53.566Z,4.93
2023-09-17T03:40:21.144Z,5.27
2023-09-17T03:42:50.025Z,5.07
2023-09-17T03:45:17.848Z,4.90
2023-09-17T03:47:48.349Z,4.80
2023-09-17T03:50:21.247Z,6.80
2023-09-17T03:52:52.601Z,6.00
2023-09-17T03:55:20.857Z,5.93
2023-09-17T03:57:50.021Z,5.40
2023-09-17T04:00:18.668Z,7.50
2023-09-17T04:02:46.904Z,5.90
2023-09-17T04:05:15.438Z,5.87
2023-09-17T04:07:44.517Z,6.27
2023-09-17T04:10:13.330Z,7.13
2023-09-17T04:12:42.112Z,7.23
2023-09-17T04:15:14.342Z,5.97
2023-09-17T04:17:42.256Z,7.10
2023-09-17T04:20:14.483Z,6.40
2023-09-17T04:22:43.183Z,6.90
2023-09-17T04:25:11.573Z,7.63
2023-09-17T04:27:39.751Z,6.47
2023-09-17T04:30:08.759Z,7.40
2023-09-17T04:32:39.452Z,7.33
2023-09-17T04:35:08.834Z,7.37
2023-09-17T04:37:37.516Z,6.60
2023-09-17T04:40:09.632Z,6.83
2023-09-17T04:42:37.734Z,6.33
2023-09-17T04:45:06.189Z,7.77
2023-09-17T04:47:35.394Z,7.63
2023-09-17T04:50:09.110Z,5.90
2023-09-17T04:52:36.724Z,7.93
2023-09-17T04:55:04.565Z,6.90
2023-09-17T04:57:32.134Z,7.60
2023-09-17T05:00:02.515Z,6.90
2023-09-17T05:02:30.165Z,8.00
2023-09-17T05:04:57.821Z,7.20
2023-09-17T05:07:26.738Z,7.57
2023-09-17T05:09:54.430Z,7.13
2023-09-17T05:12:22.241Z,7.13
2023-09-17T05:14:49.733Z,7.17
2023-09-17T05:17:18.588Z,7.30
2023-09-17T05:19:46.150Z,7.77
2023-09-17T05:22:13.717Z,8.50
2023-09-17T05:24:43.004Z,7.50
2023-09-17T05:27:10.531Z,7.10
2023-09-17T05:29:38.101Z,6.90
2023-09-17T05:32:06.482Z,7.50
2023-09-17T05:34:34.150Z,7.70
2023-09-17T05:37:01.659Z,7.20
2023-09-17T05:39:29.194Z,8.57
2023-09-17T05:41:58.057Z,7.90
2023-09-17T05:44:25.712Z,8.30
2023-09-17T05:46:53.309Z,9.63
2023-09-17T05:49:20.980Z,8.47
2023-09-17T05:51:48.647Z,7.50
2023-09-17T05:54:16.221Z,8.20
2023-09-17T05:56:43.763Z,7.97
2023-09-17T05:59:12.641Z,7.70
2023-09-17T06:01:40.361Z,8.80
2023-09-17T06:04:08.042Z,8.60
2023-09-17T06:06:35.550Z,8.50
2023-09-17T06:09:03.057Z,8.73
2023-09-17T06:11:31.244Z,6.87
2023-09-17T06:13:59.176Z,8.50
2023-09-17T06:16:32.081Z,7.73
2023-09-17T06:19:06.899Z,9.00
2023-09-17T06:21:34.963Z,9.00
2023-09-17T06:24:02.550Z,8.67
2023-09-17T06:26:30.054Z,8.40
2023-09-17T06:28:57.745Z,7.87
2023-09-17T06:31:25.397Z,9.03
2023-09-17T06:33:55.083Z,9.87
2023-09-17T06:36:23.838Z,11.07
2023-09-17T06:38:51.376Z,12.10
2023-09-17T06:41:18.901Z,9.70
2023-09-17T06:43:47.925Z,8.83
2023-09-17T06:46:15.829Z,9.20
2023-09-17T06:48:43.581Z,11.10
2023-09-17T06:51:12.438Z,8.67
2023-09-17T06:53:40.658Z,9.40
2023-09-17T06:56:09.776Z,10.60
2023-09-17T06:58:37.411Z,10.37
2023-09-17T07:01:04.976Z,9.40
2023-09-17T07:03:33.419Z,10.93
2023-09-17T07:06:00.969Z,9.70
2023-09-17T07:08:29.843Z,9.43
2023-09-17T07:10:57.411Z,10.37
2023-09-17T07:13:25.095Z,10.93
2023-09-17T07:15:52.619Z,10.20
2023-09-17T07:18:21.324Z,11.40
2023-09-17T07:20:50.885Z,10.30
2023-09-17T07:23:18.466Z,11.83
2023-09-17T07:25:47.806Z,10.70
2023-09-17T07:28:15.464Z,11.30
2023-09-17T07:30:43.014Z,10.53
2023-09-17T07:33:10.582Z,10.60
2023-09-17T07:35:41.221Z,10.53
2023-09-17T07:38:08.792Z,10.27
2023-09-17T07:40:36.326Z,10.33
2023-09-17T07:43:06.002Z,10.53
2023-09-17T07:45:35.012Z,8.83
2023-09-17T07:48:03.463Z,8.97
2023-09-17T07:50:31.075Z,8.20
2023-09-17T07:52:58.943Z,8.97
2023-09-17T07:55:27.084Z,8.67
2023-09-17T07:57:55.990Z,7.17
2023-09-17T08:00:24.899Z,7.40
2023-09-17T08:02:52.781Z,7.93
2023-09-17T08:05:20.498Z,7.10
2023-09-17T08:07:48.260Z,6.70
2023-09-17T08:10:16.278Z,8.00
2023-09-17T08:12:43.801Z,5.57
2023-09-17T08:15:11.584Z,5.80
2023-09-17T08:17:40.469Z,6.40
2023-09-17T08:20:11.688Z,6.40
2023-09-17T08:22:40.094Z,5.90
2023-09-17T08:25:09.995Z,5.50
2023-09-17T08:27:37.616Z,5.80
2023-09-17T08:30:12.899Z,5.37
2023-09-17T08:32:42.338Z,4.80
2023-09-17T08:35:10.396Z,4.33
2023-09-17T08:37:39.051Z,5.33
2023-09-17T08:40:09.237Z,4.23
2023-09-17T08:42:37.266Z,4.17
2023-09-17T08:45:06.991Z,4.50
2023-09-17T08:47:34.564Z,3.50
2023-09-17T08:50:03.833Z,4.30
2023-09-17T08:52:34.300Z,3.90
2023-09-17T08:55:03.985Z,3.77
2023-09-17T08:57:32.773Z,3.80
2023-09-17T09:00:09.340Z,3.93
2023-09-17T09:02:43.861Z,4.20
2023-09-17T09:05:13.238Z,4.20
2023-09-17T09:07:41.982Z,3.07
2023-09-17T09:10:10.579Z,3.23
2023-09-17T09:12:39.208Z,3.37
2023-09-17T09:15:11.049Z,3.40
2023-09-17T09:17:39.850Z,3.50
2023-09-17T09:20:10.814Z,3.77
2023-09-17T09:22:41.861Z,2.77
2023-09-17T09:25:11.110Z,3.10
2023-09-17T09:27:38.966Z,3.70
2023-09-17T09:30:09.538Z,2.77
2023-09-17T09:32:37.980Z,2.73
2023-09-17T09:35:07.296Z,3.50
2023-09-17T09:37:36.850Z,3.57
2023-09-17T09:40:07.493Z,3.10
2023-09-17T09:42:35.097Z,3.40
2023-09-17T09:45:05.090Z,2.70
2023-09-17T09:47:33.306Z,3.63
2023-09-17T09:50:02.095Z,3.10
2023-09-17T09:52:30.650Z,3.30
2023-09-17T09:54:58.345Z,3.33
2023-09-17T09:57:27.546Z,3.20
2023-09-17T09:59:55.215Z,3.57
2023-09-17T10:02:23.491Z,2.73
2023-09-17T10:04:51.236Z,3.10
2023-09-17T10:07:19.352Z,2.60
2023-09-17T10:09:48.388Z,4.30
2023-09-17T10:12:16.522Z,2.33
2023-09-17T10:14:45.734Z,2.70
2023-09-17T10:17:14.529Z,2.77
2023-09-17T10:19:43.770Z,2.83
2023-09-17T10:22:13.923Z,2.93
2023-09-17T10:24:42.437Z,2.73
2023-09-17T10:27:11.056Z,2.70
2023-09-17T10:29:39.546Z,2.10
2023-09-17T10:32:10.621Z,5.33
2023-09-17T10:34:38.832Z,3.67
2023-09-17T10:37:07.497Z,3.00
2023-09-17T10:39:37.642Z,2.73
2023-09-17T10:42:08.609Z,4.03
2023-09-17T10:44:38.028Z,3.33
2023-09-17T10:47:12.192Z,2.87
2023-09-17T10:49:40.750Z,3.03
2023-09-17T10:52:08.960Z,3.10
2023-09-17T10:54:36.620Z,3.50
2023-09-17T10:57:11.650Z,3.50
2023-09-17T10:59:40.615Z,3.70
2023-09-17T11:02:10.152Z,2.87
2023-09-17T11:04:40.603Z,3.37
2023-09-17T11:07:10.446Z,3.90
2023-09-17T11:09:37.712Z,2.97
2023-09-17T11:12:06.347Z,2.73
2023-09-17T11:14:34.400Z,3.23
2023-09-17T11:17:02.275Z,2.87
2023-09-17T11:19:29.955Z,2.83
2023-09-17T11:22:13.777Z,3.10
2023-09-17T11:24:41.605Z,2.70
2023-09-17T11:27:12.785Z,3.13
2023-09-17T11:29:41.575Z,4.07
2023-09-17T11:32:09.930Z,3.70
2023-09-17T11:34:40.534Z,3.53
2023-09-17T11:37:09.821Z,3.27
2023-09-17T11:39:54.802Z,3.20
2023-09-17T11:42:24.934Z,3.10
2023-09-17T11:44:53.478Z,2.50
2023-09-17T11:47:21.713Z,3.30
2023-09-17T11:49:51.682Z,3.03
2023-09-17T11:52:19.462Z,2.80
2023-09-17T11:54:49.573Z,3.60
2023-09-17T11:57:25.490Z,2.53
2023-09-17T11:59:53.332Z,2.30
2023-09-17T12:02:21.452Z,2.43
2023-09-17T12:04:50.491Z,3.10
2023-09-17T12:07:18.110Z,3.07
2023-09-17T12:09:59.241Z,3.03
2023-09-17T12:12:28.573Z,2.60
2023-09-17T12:14:56.765Z,3.60
2023-09-17T12:17:24.462Z,2.70
2023-09-17T12:20:00.683Z,2.93
2023-09-17T12:22:29.883Z,2.40
2023-09-17T12:25:04.211Z,2.77
2023-09-17T12:27:37.104Z,3.00
2023-09-17T12:30:09.648Z,3.20
2023-09-17T12:32:37.912Z,2.80
2023-09-17T12:35:07.738Z,3.20
2023-09-17T12:37:35.608Z,2.47
2023-09-17T12:40:03.159Z,2.73
2023-09-17T12:42:30.791Z,2.87
2023-09-17T12:45:00.417Z,2.73
2023-09-17T12:47:28.462Z,2.70
2023-09-17T12:49:56.792Z,3.00
2023-09-17T12:52:25.160Z,3.00
2023-09-17T12:54:54.582Z,2.50
2023-09-17T12:57:23.097Z,2.47
2023-09-17T12:59:52.670Z,3.03
2023-09-17T13:02:29.497Z,3.27
2023-09-17T13:04:57.386Z,2.60
2023-09-17T13:07:27.350Z,2.70
2023-09-17T13:09:56.727Z,2.90
2023-09-17T13:12:25.181Z,3.50
2023-09-17T13:14:53.541Z,2.43
2023-09-17T13:17:24.256Z,2.70
2023-09-17T13:19:52.624Z,2.60
2023-09-17T13:22:21.547Z,2.40
2023-09-17T13:24:49.760Z,2.97
2023-09-17T13:27:18.274Z,3.10
2023-09-17T13:29:49.738Z,3.30
2023-09-17T13:32:19.021Z,3.13
2023-09-17T13:34:48.470Z,2.40
2023-09-17T13:37:17.272Z,3.13
2023-09-17T13:39:46.692Z,2.67
2023-09-17T13:42:14.506Z,2.70
2023-09-17T13:44:42.032Z,2.83
2023-09-17T13:47:12.113Z,2.47
2023-09-17T13:49:40.186Z,1.97
2023-09-17T13:52:09.576Z,3.30
2023-09-17T13:54:38.543Z,2.60
2023-09-17T13:57:06.367Z,2.43
2023-09-17T13:59:33.893Z,2.23
2023-09-17T14:02:03.087Z,2.83
2023-09-17T14:04:30.852Z,2.13
2023-09-17T14:06:58.978Z,2.33
2023-09-17T14:09:27.959Z,3.20
2023-09-17T14:11:55.692Z,2.50
2023-09-17T14:14:23.399Z,2.53
2023-09-17T14:16:51.009Z,2.80
2023-09-17T14:19:20.079Z,3.10
2023-09-17T14:21:49.037Z,2.20
2023-09-17T14:24:16.965Z,3.37
2023-09-17T14:26:46.081Z,3.00
2023-09-17T14:29:13.892Z,2.30
2023-09-17T14:31:44.312Z,2.90
2023-09-17T14:34:12.661Z,2.50
2023-09-17T14:36:40.578Z,2.97
2023-09-17T14:39:10.694Z,2.60
2023-09-17T14:41:39.884Z,3.67
2023-09-17T14:44:09.416Z,2.50
2023-09-17T14:46:39.414Z,2.10
2023-09-17T14:49:07.392Z,2.67
2023-09-17T14:51:34.914Z,3.13
2023-09-17T14:54:02.690Z,2.67
2023-09-17T14:56:31.715Z,2.63
2023-09-17T14:58:59.321Z,2.80
2023-09-17T15:01:53.118Z,2.30
2023-09-17T15:04:15.870Z,1.77
2023-09-17T15:06:43.469Z,2.60
2023-09-17T15:09:11.330Z,2.00
2023-09-17T15:11:38.838Z,2.13
2023-09-17T15:14:06.498Z,1.50
2023-09-17T15:16:35.424Z,2.83
2023-09-17T15:19:02.954Z,2.20
2023-09-17T15:21:30.444Z,2.10
2023-09-17T15:23:58.050Z,2.30
2023-09-17T15:26:26.570Z,2.03
2023-09-17T15:28:54.403Z,1.67
2023-09-17T15:31:22.171Z,2.77
2023-09-17T15:33:51.276Z,2.20
2023-09-17T15:36:19.069Z,2.43
2023-09-17T15:38:46.930Z,2.10
2023-09-17T15:41:14.588Z,3.33
2023-09-17T15:43:43.467Z,3.53
2023-09-17T15:46:11.056Z,3.67
2023-09-17T15:48:38.601Z,3.40
2023-09-17T15:51:07.623Z,3.70
2023-09-17T15:53:35.126Z,2.93
2023-09-17T15:56:02.670Z,2.50
2023-09-17T15:58:30.207Z,3.03
2023-09-17T16:00:57.720Z,2.80
2023-09-17T16:03:25.587Z,2.50
2023-09-17T16:05:54.029Z,2.87
2023-09-17T16:08:23.945Z,2.03
2023-09-17T16:10:51.528Z,2.50
2023-09-17T16:13:19.527Z,2.23
2023-09-17T16:15:47.049Z,2.07
2023-09-17T16:18:14.659Z,2.17
2023-09-17T16:20:42.322Z,2.60
2023-09-17T16:23:10.003Z,2.47
2023-09-17T16:25:40.226Z,2.40
2023-09-17T16:28:07.964Z,2.50
2023-09-17T16:30:35.466Z,3.23
2023-09-17T16:33:03.074Z,2.23
2023-09-17T16:35:30.644Z,2.70
2023-09-17T16:37:58.383Z,2.37
2023-09-17T16:40:25.934Z,2.47
2023-09-17T16:43:07.304Z,3.27
2023-09-17T16:45:38.331Z,4.07
2023-09-17T16:48:06.369Z,4.50
2023-09-17T16:50:34.017Z,3.67
2023-09-17T16:53:01.587Z,3.90
2023-09-17T16:55:29.423Z,3.70
2023-09-17T16:57:57.505Z,4.63
2023-09-17T17:00:25.297Z,3.63
2023-09-17T17:02:53.137Z,3.87
2023-09-17T17:05:21.220Z,3.13
2023-09-17T17:07:48.835Z,3.00
2023-09-17T17:10:16.562Z,4.00
2023-09-17T17:12:44.069Z,3.30
2023-09-17T17:15:13.048Z,3.93
2023-09-17T17:17:40.763Z,3.77
2023-09-17T17:20:09.445Z,3.63
2023-09-17T17:22:44.509Z,4.97
2023-09-17T17:25:12.039Z,7.27
2023-09-17T17:27:40.141Z,6.50
2023-09-17T17:30:11.076Z,5.73
2023-09-17T17:32:41.674Z,5.27
2023-09-17T17:35:10.520Z,3.80
2023-09-17T17:37:38.156Z,6.37
2023-09-17T17:40:06.610Z,4.40
2023-09-17T17:42:34.131Z,3.67
2023-09-17T17:45:01.636Z,3.50
2023-09-17T17:47:33.545Z,3.80
2023-09-17T17:50:02.508Z,2.70
2023-09-17T17:52:30.087Z,3.33
2023-09-17T17:54:57.720Z,2.87
2023-09-17T17:57:25.249Z,2.70
2023-09-17T17:59:52.793Z,2.67
2023-09-17T18:02:20.635Z,3.17
2023-09-17T18:04:48.201Z,3.40
2023-09-17T18:07:17.218Z,2.70
2023-09-17T18:09:45.137Z,2.90
2023-09-17T18:12:13.641Z,3.17
2023-09-17T18:14:41.444Z,3.57
2023-09-17T18:17:09.024Z,4.07
2023-09-17T18:19:36.645Z,3.40
2023-09-17T18:22:04.444Z,2.80
2023-09-17T18:24:33.310Z,4.00
2023-09-17T18:27:00.797Z,4.53
2023-09-17T18:29:31.266Z,5.00
2023-09-17T18:31:59.289Z,6.53
2023-09-17T18:34:28.359Z,5.53
2023-09-17T18:36:56.606Z,5.37
2023-09-17T18:39:24.236Z,4.73
2023-09-17T18:41:53.228Z,4.93
2023-09-17T18:44:20.932Z,5.10
2023-09-17T18:46:49.065Z,5.30
2023-09-17T18:49:19.652Z,4.90
2023-09-17T18:51:47.596Z,4.70
2023-09-17T18:54:15.557Z,5.70
2023-09-17T18:56:43.576Z,4.50
2023-09-17T18:59:12.794Z,4.73
2023-09-17T19:01:41.302Z,6.47
2023-09-17T19:04:09.147Z,5.20
2023-09-17T19:06:37.192Z,6.30
2023-09-17T19:09:06.611Z,5.07
2023-09-17T19:11:34.516Z,6.37
2023-09-17T19:14:02.419Z,5.97
2023-09-17T19:16:31.658Z,5.23
2023-09-17T19:18:59.288Z,5.23
2023-09-17T19:21:26.882Z,4.10
2023-09-17T19:23:54.877Z,5.40
2023-09-17T19:26:22.969Z,5.20
2023-09-17T19:28:50.762Z,6.10
2023-09-17T19:31:18.417Z,4.37
2023-09-17T19:33:47.840Z,4.50
2023-09-17T19:36:15.521Z,4.23
2023-09-17T19:38:43.391Z,4.67
2023-09-17T19:41:11.147Z,4.40
2023-09-17T19:43:41.790Z,4.40
2023-09-17T19:46:09.467Z,4.70
2023-09-17T19:48:36.998Z,4.00
2023-09-17T19:51:10.079Z,4.03
2023-09-17T19:53:39.618Z,4.90
2023-09-17T19:56:07.203Z,3.90
2023-09-17T19:58:34.820Z,4.23
2023-09-17T20:01:03.749Z,5.30
2023-09-17T20:03:31.475Z,4.40
2023-09-17T20:06:00.192Z,4.83
2023-09-17T20:08:29.107Z,3.83
2023-09-17T20:10:56.918Z,4.17
2023-09-17T20:13:25.139Z,4.50
2023-09-17T20:15:52.744Z,6.87
2023-09-17T20:18:20.315Z,4.00
2023-09-17T20:20:48.308Z,4.80
2023-09-17T20:23:16.159Z,4.97
2023-09-17T20:25:47.586Z,5.90
2023-09-17T20:28:15.333Z,6.23
2023-09-17T20:30:45.075Z,4.67
2023-09-17T20:33:12.860Z,5.93
2023-09-17T20:35:40.597Z,4.20
2023-09-17T20:38:08.342Z,4.40
2023-09-17T20:40:36.101Z,4.03
2023-09-17T20:43:05.208Z,5.30
2023-09-17T20:45:33.084Z,3.10
2023-09-17T20:48:00.897Z,3.43
2023-09-17T20:50:28.879Z,4.10
2023-09-17T20:52:57.402Z,4.57
2023-09-17T20:55:27.624Z,4.40
2023-09-17T20:57:55.473Z,5.47
2023-09-17T21:00:24.894Z,3.73
2023-09-17T21:02:53.870Z,3.50
2023-09-17T21:05:22.562Z,4.63
2023-09-17T21:07:50.442Z,4.73
2023-09-17T21:10:17.964Z,4.00
2023-09-17T21:12:45.501Z,4.63
2023-09-17T21:15:13.046Z,3.77
2023-09-17T21:17:44.304Z,4.20
2023-09-17T21:20:19.498Z,2.83
2023-09-17T21:22:49.043Z,3.80
2023-09-17T21:25:17.540Z,4.00
2023-09-17T21:27:46.955Z,3.60
2023-09-17T21:30:14.906Z,4.13
2023-09-17T21:32:44.958Z,4.07
2023-09-17T21:35:12.960Z,4.10
2023-09-17T21:37:40.682Z,4.70
2023-09-17T21:40:09.378Z,4.63
2023-09-17T21:42:37.222Z,4.20
2023-09-17T21:45:05.561Z,4.80
2023-09-17T21:47:33.256Z,4.77
2023-09-17T21:50:02.913Z,4.70
2023-09-17T21:52:31.046Z,4.33
2023-09-17T21:54:59.430Z,3.93
2023-09-17T21:57:27.568Z,4.97
2023-09-17T21:59:55.189Z,4.13
2023-09-17T22:02:23.209Z,4.13
2023-09-17T22:04:50.883Z,4.30
2023-09-17T22:07:19.758Z,5.07
2023-09-17T22:09:47.292Z,4.57
2023-09-17T22:12:15.564Z,5.47
2023-09-17T22:14:43.140Z,4.03
2023-09-17T22:17:11.662Z,4.53
2023-09-17T22:19:41.675Z,4.70
2023-09-17T22:22:09.784Z,4.60
2023-09-17T22:24:43.902Z,4.70
2023-09-17T22:27:13.073Z,4.60
2023-09-17T22:29:42.529Z,3.73
2023-09-17T22:32:10.093Z,4.00
2023-09-17T22:34:37.647Z,3.97
2023-09-17T22:37:05.303Z,4.00
2023-09-17T22:39:32.832Z,3.47
2023-09-17T22:42:01.704Z,3.63
2023-09-17T22:44:29.258Z,4.10
2023-09-17T22:46:56.850Z,3.90
2023-09-17T22:49:24.607Z,3.63
2023-09-17T22:51:52.114Z,3.60
2023-09-17T22:54:20.634Z,3.87
2023-09-17T22:56:48.136Z,4.17
2023-09-17T22:59:16.991Z,4.67
2023-09-17T23:01:44.639Z,3.70
2023-09-17T23:04:12.169Z,4.00
2023-09-17T23:06:39.744Z,3.37
2023-09-17T23:09:09.535Z,3.90
2023-09-17T23:11:37.124Z,4.33
2023-09-17T23:14:06.823Z,3.73
2023-09-17T23:16:36.316Z,2.90
2023-09-17T23:19:07.079Z,3.20
2023-09-17T23:21:34.953Z,4.80
2023-09-17T23:24:03.274Z,3.53
2023-09-17T23:26:30.835Z,3.40
2023-09-17T23:28:59.186Z,3.63
2023-09-17T23:31:28.278Z,3.17
2023-09-17T23:33:57.488Z,3.33
2023-09-17T23:36:28.431Z,3.37
2023-09-17T23:38:56.413Z,4.03
2023-09-17T23:41:24.739Z,4.07
2023-09-17T23:43:52.398Z,3.80
2023-09-17T23:46:23.068Z,3.70
2023-09-17T23:48:50.962Z,3.57
2023-09-17T23:51:20.057Z,3.03
2023-09-17T23:53:47.610Z,3.20
2023-09-17T23:56:15.146Z,2.50
2023-09-17T23:58:42.692Z,3.40
